sensor_id;sensor_type;location;lat;lon;timestamp;temperature;humidity
16267;DHT22;8241;48.786;9.250;2023-04-27T00:00:31;9.50;98.20
16267;DHT22;8241;48.786;9.250;2023-04-27T00:02:59;9.50;98.90
16267;DHT22;8241;48.786;9.250;2023-04-27T00:05:30;9.50;99.70
16267;DHT22;8241;48.786;9.250;2023-04-27T00:07:57;9.50;99.50
16267;DHT22;8241;48.786;9.250;2023-04-27T00:10:24;9.40;99.40
16267;DHT22;8241;48.786;9.250;2023-04-27T00:12:51;9.40;99.90
16267;DHT22;8241;48.786;9.250;2023-04-27T00:15:18;9.50;99.90
16267;DHT22;8241;48.786;9.250;2023-04-27T00:17:44;9.40;99.90
16267;DHT22;8241;48.786;9.250;2023-04-27T00:20:13;9.40;99.90
16267;DHT22;8241;48.786;9.250;2023-04-27T00:22:39;9.30;99.90
16267;DHT22;8241;48.786;9.250;2023-04-27T00:25:06;9.40;99.90
16267;DHT22;8241;48.786;9.250;2023-04-27T00:27:33;9.40;99.90
16267;DHT22;8241;48.786;9.250;2023-04-27T00:30:00;9.40;99.90
16267;DHT22;8241;48.786;9.250;2023-04-27T00:32:27;9.40;99.90
16267;DHT22;8241;48.786;9.250;2023-04-27T00:34:54;9.30;99.90
16267;DHT22;8241;48.786;9.250;2023-04-27T00:37:22;9.30;99.90
16267;DHT22;8241;48.786;9.250;2023-04-27T00:39:49;9.30;99.90
16267;DHT22;8241;48.786;9.250;2023-04-27T00:42:16;9.30;99.90
16267;DHT22;8241;48.786;9.250;2023-04-27T00:44:44;9.30;99.90
16267;DHT22;8241;48.786;9.250;2023-04-27T00:47:11;9.30;99.90
16267;DHT22;8241;48.786;9.250;2023-04-27T00:49:38;9.30;99.90
16267;DHT22;8241;48.786;9.250;2023-04-27T00:52:05;9.30;99.90
16267;DHT22;8241;48.786;9.250;2023-04-27T00:54:43;9.30;99.90
16267;DHT22;8241;48.786;9.250;2023-04-27T00:57:10;9.30;99.90
16267;DHT22;8241;48.786;9.250;2023-04-27T00:59:37;9.40;99.90
16267;DHT22;8241;48.786;9.250;2023-04-27T01:02:05;9.40;99.90
16267;DHT22;8241;48.786;9.250;2023-04-27T01:04:31;9.40;99.90
16267;DHT22;8241;48.786;9.250;2023-04-27T01:06:58;9.40;99.90
16267;DHT22;8241;48.786;9.250;2023-04-27T01:09:27;9.40;99.90
16267;DHT22;8241;48.786;9.250;2023-04-27T01:11:55;9.40;99.90
16267;DHT22;8241;48.786;9.250;2023-04-27T01:14:28;9.40;99.90
16267;DHT22;8241;48.786;9.250;2023-04-27T01:16:55;9.40;99.90
16267;DHT22;8241;48.786;9.250;2023-04-27T01:19:22;9.30;99.90
16267;DHT22;8241;48.786;9.250;2023-04-27T01:21:49;9.20;99.90
16267;DHT22;8241;48.786;9.250;2023-04-27T01:24:17;9.10;99.90
16267;DHT22;8241;48.786;9.250;2023-04-27T01:26:46;9.10;99.90
16267;DHT22;8241;48.786;9.250;2023-04-27T01:29:16;9.10;99.90
16267;DHT22;8241;48.786;9.250;2023-04-27T01:31:43;9.10;99.90
16267;DHT22;8241;48.786;9.250;2023-04-27T01:34:11;9.00;99.90
16267;DHT22;8241;48.786;9.250;2023-04-27T01:36:38;9.10;99.90
16267;DHT22;8241;48.786;9.250;2023-04-27T01:39:05;9.10;99.90
16267;DHT22;8241;48.786;9.250;2023-04-27T01:41:35;9.10;99.90
16267;DHT22;8241;48.786;9.250;2023-04-27T01:44:02;9.10;99.90
16267;DHT22;8241;48.786;9.250;2023-04-27T01:46:29;9.10;99.90
16267;DHT22;8241;48.786;9.250;2023-04-27T01:48:56;9.00;99.90
16267;DHT22;8241;48.786;9.250;2023-04-27T01:51:22;9.00;99.90
16267;DHT22;8241;48.786;9.250;2023-04-27T01:53:49;8.90;99.90
16267;DHT22;8241;48.786;9.250;2023-04-27T01:56:16;8.90;99.90
16267;DHT22;8241;48.786;9.250;2023-04-27T01:58:45;8.80;99.90
16267;DHT22;8241;48.786;9.250;2023-04-27T02:01:12;8.80;99.90
16267;DHT22;8241;48.786;9.250;2023-04-27T02:03:39;8.80;99.90
16267;DHT22;8241;48.786;9.250;2023-04-27T02:06:06;8.80;99.90
16267;DHT22;8241;48.786;9.250;2023-04-27T02:08:33;8.70;99.90
16267;DHT22;8241;48.786;9.250;2023-04-27T02:11:00;8.70;99.90
16267;DHT22;8241;48.786;9.250;2023-04-27T02:13:27;8.70;99.90
16267;DHT22;8241;48.786;9.250;2023-04-27T02:15:55;8.70;99.90
16267;DHT22;8241;48.786;9.250;2023-04-27T02:18:22;8.70;99.90
16267;DHT22;8241;48.786;9.250;2023-04-27T02:20:49;8.70;99.90
16267;DHT22;8241;48.786;9.250;2023-04-27T02:23:16;8.70;99.90
16267;DHT22;8241;48.786;9.250;2023-04-27T02:25:43;8.70;99.90
16267;DHT22;8241;48.786;9.250;2023-04-27T02:28:11;8.70;99.90
16267;DHT22;8241;48.786;9.250;2023-04-27T02:30:38;8.70;99.90
16267;DHT22;8241;48.786;9.250;2023-04-27T02:33:06;8.70;99.90
16267;DHT22;8241;48.786;9.250;2023-04-27T02:35:33;8.70;99.90
16267;DHT22;8241;48.786;9.250;2023-04-27T02:38:00;8.70;99.90
16267;DHT22;8241;48.786;9.250;2023-04-27T02:40:26;8.70;99.90
16267;DHT22;8241;48.786;9.250;2023-04-27T02:42:53;8.70;99.90
16267;DHT22;8241;48.786;9.250;2023-04-27T02:45:21;8.80;99.90
16267;DHT22;8241;48.786;9.250;2023-04-27T02:47:47;8.80;99.90
16267;DHT22;8241;48.786;9.250;2023-04-27T02:50:17;8.80;99.90
16267;DHT22;8241;48.786;9.250;2023-04-27T02:52:44;8.80;99.90
16267;DHT22;8241;48.786;9.250;2023-04-27T02:55:11;8.80;99.90
16267;DHT22;8241;48.786;9.250;2023-04-27T02:57:39;8.70;99.90
16267;DHT22;8241;48.786;9.250;2023-04-27T03:00:06;8.70;99.90
16267;DHT22;8241;48.786;9.250;2023-04-27T03:02:34;8.60;99.90
16267;DHT22;8241;48.786;9.250;2023-04-27T03:05:00;8.60;99.90
16267;DHT22;8241;48.786;9.250;2023-04-27T03:07:30;8.60;99.90
16267;DHT22;8241;48.786;9.250;2023-04-27T03:09:57;8.60;99.90
16267;DHT22;8241;48.786;9.250;2023-04-27T03:12:23;8.70;99.90
16267;DHT22;8241;48.786;9.250;2023-04-27T03:14:51;8.70;99.90
16267;DHT22;8241;48.786;9.250;2023-04-27T03:17:18;8.70;99.90
16267;DHT22;8241;48.786;9.250;2023-04-27T03:19:46;8.70;99.90
16267;DHT22;8241;48.786;9.250;2023-04-27T03:22:14;8.70;99.90
16267;DHT22;8241;48.786;9.250;2023-04-27T03:24:42;8.70;99.90
16267;DHT22;8241;48.786;9.250;2023-04-27T03:27:09;8.70;99.90
16267;DHT22;8241;48.786;9.250;2023-04-27T03:29:38;8.70;99.90
16267;DHT22;8241;48.786;9.250;2023-04-27T03:32:06;8.60;99.90
16267;DHT22;8241;48.786;9.250;2023-04-27T03:34:37;8.70;99.90
16267;DHT22;8241;48.786;9.250;2023-04-27T03:37:04;8.70;99.90
16267;DHT22;8241;48.786;9.250;2023-04-27T03:39:35;8.60;99.90
16267;DHT22;8241;48.786;9.250;2023-04-27T03:42:04;8.60;99.90
16267;DHT22;8241;48.786;9.250;2023-04-27T03:44:31;8.50;99.90
16267;DHT22;8241;48.786;9.250;2023-04-27T03:47:01;8.60;99.90
16267;DHT22;8241;48.786;9.250;2023-04-27T03:49:33;8.60;99.90
16267;DHT22;8241;48.786;9.250;2023-04-27T03:52:00;8.60;99.90
16267;DHT22;8241;48.786;9.250;2023-04-27T03:54:27;8.50;99.90
16267;DHT22;8241;48.786;9.250;2023-04-27T03:56:54;8.60;99.90
16267;DHT22;8241;48.786;9.250;2023-04-27T03:59:23;8.60;99.90
16267;DHT22;8241;48.786;9.250;2023-04-27T04:01:51;8.60;99.90
16267;DHT22;8241;48.786;9.250;2023-04-27T04:04:18;8.60;99.90
16267;DHT22;8241;48.786;9.250;2023-04-27T04:06:46;8.60;99.90
16267;DHT22;8241;48.786;9.250;2023-04-27T04:09:12;8.60;99.90
16267;DHT22;8241;48.786;9.250;2023-04-27T04:11:40;8.50;99.90
16267;DHT22;8241;48.786;9.250;2023-04-27T04:14:09;8.40;99.90
16267;DHT22;8241;48.786;9.250;2023-04-27T04:16:37;8.40;99.90
16267;DHT22;8241;48.786;9.250;2023-04-27T04:19:04;8.30;99.90
16267;DHT22;8241;48.786;9.250;2023-04-27T04:21:31;8.30;99.90
16267;DHT22;8241;48.786;9.250;2023-04-27T04:23:58;8.30;99.90
16267;DHT22;8241;48.786;9.250;2023-04-27T04:26:25;8.30;99.90
16267;DHT22;8241;48.786;9.250;2023-04-27T04:28:52;8.30;99.90
16267;DHT22;8241;48.786;9.250;2023-04-27T04:31:19;8.30;99.90
16267;DHT22;8241;48.786;9.250;2023-04-27T04:33:47;8.40;99.90
16267;DHT22;8241;48.786;9.250;2023-04-27T04:36:14;8.40;99.90
16267;DHT22;8241;48.786;9.250;2023-04-27T04:38:41;8.40;99.90
16267;DHT22;8241;48.786;9.250;2023-04-27T04:41:08;8.50;99.90
16267;DHT22;8241;48.786;9.250;2023-04-27T04:43:36;8.50;99.90
16267;DHT22;8241;48.786;9.250;2023-04-27T04:46:05;8.50;99.90
16267;DHT22;8241;48.786;9.250;2023-04-27T04:48:32;8.60;99.90
16267;DHT22;8241;48.786;9.250;2023-04-27T04:51:01;8.60;99.90
16267;DHT22;8241;48.786;9.250;2023-04-27T04:53:30;8.50;99.90
16267;DHT22;8241;48.786;9.250;2023-04-27T04:55:56;8.50;99.90
16267;DHT22;8241;48.786;9.250;2023-04-27T04:58:23;8.40;99.90
16267;DHT22;8241;48.786;9.250;2023-04-27T05:00:50;8.50;99.90
16267;DHT22;8241;48.786;9.250;2023-04-27T05:03:19;8.50;99.90
16267;DHT22;8241;48.786;9.250;2023-04-27T05:05:46;8.70;99.90
16267;DHT22;8241;48.786;9.250;2023-04-27T05:08:14;8.60;99.90
16267;DHT22;8241;48.786;9.250;2023-04-27T05:10:47;8.40;99.90
16267;DHT22;8241;48.786;9.250;2023-04-27T05:13:14;8.40;99.90
16267;DHT22;8241;48.786;9.250;2023-04-27T05:15:44;8.40;99.90
16267;DHT22;8241;48.786;9.250;2023-04-27T05:18:11;8.40;99.90
16267;DHT22;8241;48.786;9.250;2023-04-27T05:20:37;8.30;99.90
16267;DHT22;8241;48.786;9.250;2023-04-27T05:23:04;8.30;99.90
16267;DHT22;8241;48.786;9.250;2023-04-27T05:25:33;8.30;99.90
16267;DHT22;8241;48.786;9.250;2023-04-27T05:28:05;8.30;99.90
16267;DHT22;8241;48.786;9.250;2023-04-27T05:30:32;8.30;99.90
16267;DHT22;8241;48.786;9.250;2023-04-27T05:33:00;8.50;99.90
16267;DHT22;8241;48.786;9.250;2023-04-27T05:35:26;8.50;99.90
16267;DHT22;8241;48.786;9.250;2023-04-27T05:37:54;8.50;99.90
16267;DHT22;8241;48.786;9.250;2023-04-27T05:40:21;8.60;99.90
16267;DHT22;8241;48.786;9.250;2023-04-27T05:42:49;8.70;99.90
16267;DHT22;8241;48.786;9.250;2023-04-27T05:45:16;8.80;99.90
16267;DHT22;8241;48.786;9.250;2023-04-27T05:47:43;8.90;99.90
16267;DHT22;8241;48.786;9.250;2023-04-27T05:50:10;8.90;99.90
16267;DHT22;8241;48.786;9.250;2023-04-27T05:52:36;8.80;99.90
16267;DHT22;8241;48.786;9.250;2023-04-27T05:55:04;8.90;99.90
16267;DHT22;8241;48.786;9.250;2023-04-27T05:57:32;9.00;99.90
16267;DHT22;8241;48.786;9.250;2023-04-27T06:00:00;9.00;99.90
16267;DHT22;8241;48.786;9.250;2023-04-27T06:02:37;9.10;99.90
16267;DHT22;8241;48.786;9.250;2023-04-27T06:05:05;9.20;99.90
16267;DHT22;8241;48.786;9.250;2023-04-27T06:07:32;9.20;99.90
16267;DHT22;8241;48.786;9.250;2023-04-27T06:10:01;9.20;99.90
16267;DHT22;8241;48.786;9.250;2023-04-27T06:12:28;9.30;99.90
16267;DHT22;8241;48.786;9.250;2023-04-27T06:14:55;9.40;99.90
16267;DHT22;8241;48.786;9.250;2023-04-27T06:17:23;9.50;99.90
16267;DHT22;8241;48.786;9.250;2023-04-27T06:19:50;9.60;99.90
16267;DHT22;8241;48.786;9.250;2023-04-27T06:22:17;9.70;99.90
16267;DHT22;8241;48.786;9.250;2023-04-27T06:24:44;9.80;99.90
16267;DHT22;8241;48.786;9.250;2023-04-27T06:27:11;9.90;99.90
16267;DHT22;8241;48.786;9.250;2023-04-27T06:29:38;10.10;99.90
16267;DHT22;8241;48.786;9.250;2023-04-27T06:32:05;10.10;99.90
16267;DHT22;8241;48.786;9.250;2023-04-27T06:34:34;10.10;99.90
16267;DHT22;8241;48.786;9.250;2023-04-27T06:37:01;10.00;99.90
16267;DHT22;8241;48.786;9.250;2023-04-27T06:39:28;10.00;99.90
16267;DHT22;8241;48.786;9.250;2023-04-27T06:41:58;10.10;99.90
16267;DHT22;8241;48.786;9.250;2023-04-27T06:44:25;10.20;99.90
16267;DHT22;8241;48.786;9.250;2023-04-27T06:46:52;10.40;99.90
16267;DHT22;8241;48.786;9.250;2023-04-27T06:49:19;10.50;99.90
16267;DHT22;8241;48.786;9.250;2023-04-27T06:51:47;10.50;99.90
16267;DHT22;8241;48.786;9.250;2023-04-27T06:54:14;10.60;99.90
16267;DHT22;8241;48.786;9.250;2023-04-27T06:56:41;10.60;99.90
16267;DHT22;8241;48.786;9.250;2023-04-27T06:59:09;10.80;99.90
16267;DHT22;8241;48.786;9.250;2023-04-27T07:01:37;11.00;99.90
16267;DHT22;8241;48.786;9.250;2023-04-27T07:04:05;11.20;99.90
16267;DHT22;8241;48.786;9.250;2023-04-27T07:06:33;11.60;99.90
16267;DHT22;8241;48.786;9.250;2023-04-27T07:09:01;12.50;98.60
16267;DHT22;8241;48.786;9.250;2023-04-27T07:11:30;12.90;97.40
16267;DHT22;8241;48.786;9.250;2023-04-27T07:13:57;13.00;96.80
16267;DHT22;8241;48.786;9.250;2023-04-27T07:16:24;14.30;95.80
16267;DHT22;8241;48.786;9.250;2023-04-27T07:18:50;15.10;92.90
16267;DHT22;8241;48.786;9.250;2023-04-27T07:21:17;15.60;92.30
16267;DHT22;8241;48.786;9.250;2023-04-27T07:23:44;16.60;91.30
16267;DHT22;8241;48.786;9.250;2023-04-27T07:26:13;18.30;86.90
16267;DHT22;8241;48.786;9.250;2023-04-27T07:28:40;19.70;80.80
16267;DHT22;8241;48.786;9.250;2023-04-27T07:31:07;20.40;77.30
16267;DHT22;8241;48.786;9.250;2023-04-27T07:33:35;21.10;76.50
16267;DHT22;8241;48.786;9.250;2023-04-27T07:36:02;20.80;75.20
16267;DHT22;8241;48.786;9.250;2023-04-27T07:38:29;20.80;74.80
16267;DHT22;8241;48.786;9.250;2023-04-27T07:40:57;21.30;75.00
16267;DHT22;8241;48.786;9.250;2023-04-27T07:43:25;22.00;72.20
16267;DHT22;8241;48.786;9.250;2023-04-27T07:45:52;22.40;70.60
16267;DHT22;8241;48.786;9.250;2023-04-27T07:48:20;22.10;72.00
16267;DHT22;8241;48.786;9.250;2023-04-27T07:50:47;21.80;71.70
16267;DHT22;8241;48.786;9.250;2023-04-27T07:53:14;20.40;74.60
16267;DHT22;8241;48.786;9.250;2023-04-27T07:55:42;19.30;78.20
16267;DHT22;8241;48.786;9.250;2023-04-27T07:58:09;20.30;77.00
16267;DHT22;8241;48.786;9.250;2023-04-27T08:00:38;21.00;76.00
16267;DHT22;8241;48.786;9.250;2023-04-27T08:03:05;21.50;73.00
16267;DHT22;8241;48.786;9.250;2023-04-27T08:05:34;21.10;74.00
16267;DHT22;8241;48.786;9.250;2023-04-27T08:08:01;22.40;69.60
16267;DHT22;8241;48.786;9.250;2023-04-27T08:10:28;22.20;69.20
16267;DHT22;8241;48.786;9.250;2023-04-27T08:12:56;22.80;69.40
16267;DHT22;8241;48.786;9.250;2023-04-27T08:15:23;25.10;65.10
16267;DHT22;8241;48.786;9.250;2023-04-27T08:17:51;25.60;63.90
16267;DHT22;8241;48.786;9.250;2023-04-27T08:20:18;24.70;63.50
16267;DHT22;8241;48.786;9.250;2023-04-27T08:22:45;24.40;63.50
16267;DHT22;8241;48.786;9.250;2023-04-27T08:25:13;23.50;63.90
16267;DHT22;8241;48.786;9.250;2023-04-27T08:27:40;22.90;66.50
16267;DHT22;8241;48.786;9.250;2023-04-27T08:30:07;23.50;65.20
16267;DHT22;8241;48.786;9.250;2023-04-27T08:32:34;23.90;62.40
16267;DHT22;8241;48.786;9.250;2023-04-27T08:35:03;25.40;64.90
16267;DHT22;8241;48.786;9.250;2023-04-27T08:37:30;27.70;59.20
16267;DHT22;8241;48.786;9.250;2023-04-27T08:39:57;27.20;58.70
16267;DHT22;8241;48.786;9.250;2023-04-27T08:42:24;27.30;58.80
16267;DHT22;8241;48.786;9.250;2023-04-27T08:44:51;26.90;58.70
16267;DHT22;8241;48.786;9.250;2023-04-27T08:47:18;26.90;59.10
16267;DHT22;8241;48.786;9.250;2023-04-27T08:49:47;27.30;58.00
16267;DHT22;8241;48.786;9.250;2023-04-27T08:52:15;27.90;58.20
16267;DHT22;8241;48.786;9.250;2023-04-27T08:54:42;28.40;57.20
16267;DHT22;8241;48.786;9.250;2023-04-27T08:57:10;28.20;56.10
16267;DHT22;8241;48.786;9.250;2023-04-27T08:59:37;28.10;56.60
16267;DHT22;8241;48.786;9.250;2023-04-27T09:02:04;26.90;59.00
16267;DHT22;8241;48.786;9.250;2023-04-27T09:04:37;28.70;57.70
16267;DHT22;8241;48.786;9.250;2023-04-27T09:07:14;29.90;55.80
16267;DHT22;8241;48.786;9.250;2023-04-27T09:09:43;30.10;55.00
16267;DHT22;8241;48.786;9.250;2023-04-27T09:12:14;26.50;57.00
16267;DHT22;8241;48.786;9.250;2023-04-27T09:14:42;24.70;61.20
16267;DHT22;8241;48.786;9.250;2023-04-27T09:17:09;24.70;59.40
16267;DHT22;8241;48.786;9.250;2023-04-27T09:19:36;25.40;59.00
16267;DHT22;8241;48.786;9.250;2023-04-27T09:22:04;25.20;59.10
16267;DHT22;8241;48.786;9.250;2023-04-27T09:24:31;25.60;59.20
16267;DHT22;8241;48.786;9.250;2023-04-27T09:27:00;25.10;58.40
16267;DHT22;8241;48.786;9.250;2023-04-27T09:29:34;25.80;59.70
16267;DHT22;8241;48.786;9.250;2023-04-27T09:32:01;25.60;58.40
16267;DHT22;8241;48.786;9.250;2023-04-27T09:34:38;25.00;72.40
16267;DHT22;8241;48.786;9.250;2023-04-27T09:37:06;25.10;59.10
16267;DHT22;8241;48.786;9.250;2023-04-27T09:39:34;25.10;59.40
16267;DHT22;8241;48.786;9.250;2023-04-27T09:42:03;24.60;60.30
16267;DHT22;8241;48.786;9.250;2023-04-27T09:44:32;25.90;59.20
16267;DHT22;8241;48.786;9.250;2023-04-27T09:46:59;26.50;58.90
16267;DHT22;8241;48.786;9.250;2023-04-27T09:49:28;26.90;58.70
16267;DHT22;8241;48.786;9.250;2023-04-27T09:51:55;27.00;56.90
16267;DHT22;8241;48.786;9.250;2023-04-27T09:54:26;27.00;57.10
16267;DHT22;8241;48.786;9.250;2023-04-27T09:56:58;26.70;57.60
16267;DHT22;8241;48.786;9.250;2023-04-27T09:59:35;26.70;56.90
16267;DHT22;8241;48.786;9.250;2023-04-27T10:02:07;25.80;56.90
16267;DHT22;8241;48.786;9.250;2023-04-27T10:04:41;25.50;59.10
16267;DHT22;8241;48.786;9.250;2023-04-27T10:07:11;24.80;58.10
16267;DHT22;8241;48.786;9.250;2023-04-27T10:09:39;24.00;59.10
16267;DHT22;8241;48.786;9.250;2023-04-27T10:12:17;23.40;61.30
16267;DHT22;8241;48.786;9.250;2023-04-27T10:14:49;23.00;61.70
16267;DHT22;8241;48.786;9.250;2023-04-27T10:17:16;22.70;62.30
16267;DHT22;8241;48.786;9.250;2023-04-27T10:19:54;22.60;65.80
16267;DHT22;8241;48.786;9.250;2023-04-27T10:22:35;22.50;64.00
16267;DHT22;8241;48.786;9.250;2023-04-27T10:25:15;22.30;65.60
16267;DHT22;8241;48.786;9.250;2023-04-27T10:27:42;21.70;64.30
16267;DHT22;8241;48.786;9.250;2023-04-27T10:30:13;20.40;69.80
16267;DHT22;8241;48.786;9.250;2023-04-27T10:32:49;20.40;68.40
16267;DHT22;8241;48.786;9.250;2023-04-27T10:35:16;20.10;68.10
16267;DHT22;8241;48.786;9.250;2023-04-27T10:37:43;19.50;70.00
16267;DHT22;8241;48.786;9.250;2023-04-27T10:40:10;19.10;71.70
16267;DHT22;8241;48.786;9.250;2023-04-27T10:42:39;19.50;73.70
16267;DHT22;8241;48.786;9.250;2023-04-27T10:45:07;19.70;70.60
16267;DHT22;8241;48.786;9.250;2023-04-27T10:47:39;19.70;70.90
16267;DHT22;8241;48.786;9.250;2023-04-27T10:50:07;19.60;71.00
16267;DHT22;8241;48.786;9.250;2023-04-27T10:52:37;19.20;71.70
16267;DHT22;8241;48.786;9.250;2023-04-27T10:57:54;19.10;71.10
16267;DHT22;8241;48.786;9.250;2023-04-27T11:00:22;19.00;74.20
16267;DHT22;8241;48.786;9.250;2023-04-27T11:02:54;19.10;74.60
16267;DHT22;8241;48.786;9.250;2023-04-27T11:05:22;19.10;74.30
16267;DHT22;8241;48.786;9.250;2023-04-27T11:08:02;19.40;74.40
16267;DHT22;8241;48.786;9.250;2023-04-27T11:10:30;19.60;73.40
16267;DHT22;8241;48.786;9.250;2023-04-27T11:12:57;19.90;72.80
16267;DHT22;8241;48.786;9.250;2023-04-27T11:15:25;20.00;72.50
16267;DHT22;8241;48.786;9.250;2023-04-27T11:18:04;19.80;69.80
16267;DHT22;8241;48.786;9.250;2023-04-27T11:20:31;19.00;70.70
16267;DHT22;8241;48.786;9.250;2023-04-27T11:22:58;18.80;73.30
16267;DHT22;8241;48.786;9.250;2023-04-27T11:25:28;19.30;74.00
16267;DHT22;8241;48.786;9.250;2023-04-27T11:27:55;19.70;72.60
16267;DHT22;8241;48.786;9.250;2023-04-27T11:30:24;19.90;71.90
16267;DHT22;8241;48.786;9.250;2023-04-27T11:32:51;19.90;70.40
16267;DHT22;8241;48.786;9.250;2023-04-27T11:35:19;19.70;72.10
16267;DHT22;8241;48.786;9.250;2023-04-27T11:37:57;19.80;71.40
16267;DHT22;8241;48.786;9.250;2023-04-27T11:40:24;19.70;71.50
16267;DHT22;8241;48.786;9.250;2023-04-27T11:42:56;20.00;73.80
16267;DHT22;8241;48.786;9.250;2023-04-27T11:45:24;20.30;72.40
16267;DHT22;8241;48.786;9.250;2023-04-27T11:47:52;20.80;70.20
16267;DHT22;8241;48.786;9.250;2023-04-27T11:50:22;21.00;71.30
16267;DHT22;8241;48.786;9.250;2023-04-27T11:52:49;21.40;68.80
16267;DHT22;8241;48.786;9.250;2023-04-27T11:55:18;21.70;68.40
16267;DHT22;8241;48.786;9.250;2023-04-27T11:57:46;22.10;67.20
16267;DHT22;8241;48.786;9.250;2023-04-27T12:00:13;22.80;65.00
16267;DHT22;8241;48.786;9.250;2023-04-27T12:02:41;22.70;68.00
16267;DHT22;8241;48.786;9.250;2023-04-27T12:05:08;22.10;66.60
16267;DHT22;8241;48.786;9.250;2023-04-27T12:07:37;21.90;67.60
16267;DHT22;8241;48.786;9.250;2023-04-27T12:10:05;22.20;66.50
16267;DHT22;8241;48.786;9.250;2023-04-27T12:12:32;22.10;65.70
16267;DHT22;8241;48.786;9.250;2023-04-27T12:14:59;22.50;66.30
16267;DHT22;8241;48.786;9.250;2023-04-27T12:17:26;22.80;66.00
16267;DHT22;8241;48.786;9.250;2023-04-27T12:19:53;22.70;65.70
16267;DHT22;8241;48.786;9.250;2023-04-27T12:22:20;23.10;65.60
16267;DHT22;8241;48.786;9.250;2023-04-27T12:24:49;23.30;64.10
16267;DHT22;8241;48.786;9.250;2023-04-27T12:27:16;23.70;64.80
16267;DHT22;8241;48.786;9.250;2023-04-27T12:29:43;22.70;65.50
16267;DHT22;8241;48.786;9.250;2023-04-27T12:32:10;22.80;66.10
16267;DHT22;8241;48.786;9.250;2023-04-27T12:34:39;23.00;66.40
16267;DHT22;8241;48.786;9.250;2023-04-27T12:37:07;23.00;64.90
16267;DHT22;8241;48.786;9.250;2023-04-27T12:39:34;23.00;65.40
16267;DHT22;8241;48.786;9.250;2023-04-27T12:42:02;23.10;65.50
16267;DHT22;8241;48.786;9.250;2023-04-27T12:44:32;23.10;66.20
16267;DHT22;8241;48.786;9.250;2023-04-27T12:46:59;23.00;66.40
16267;DHT22;8241;48.786;9.250;2023-04-27T12:49:26;22.80;64.70
16267;DHT22;8241;48.786;9.250;2023-04-27T12:51:53;22.40;65.30
16267;DHT22;8241;48.786;9.250;2023-04-27T12:54:21;21.40;67.00
16267;DHT22;8241;48.786;9.250;2023-04-27T12:56:48;21.00;67.80
16267;DHT22;8241;48.786;9.250;2023-04-27T12:59:17;20.40;69.10
16267;DHT22;8241;48.786;9.250;2023-04-27T13:01:44;20.00;70.10
16267;DHT22;8241;48.786;9.250;2023-04-27T13:04:16;19.80;70.60
16267;DHT22;8241;48.786;9.250;2023-04-27T13:06:43;19.80;70.50
16267;DHT22;8241;48.786;9.250;2023-04-27T13:09:10;19.80;70.60
16267;DHT22;8241;48.786;9.250;2023-04-27T13:11:37;20.50;73.10
16267;DHT22;8241;48.786;9.250;2023-04-27T13:14:04;20.90;69.20
16267;DHT22;8241;48.786;9.250;2023-04-27T13:16:32;21.20;70.50
16267;DHT22;8241;48.786;9.250;2023-04-27T13:19:00;21.50;70.30
16267;DHT22;8241;48.786;9.250;2023-04-27T13:21:26;21.80;69.30
16267;DHT22;8241;48.786;9.250;2023-04-27T13:23:56;21.50;66.90
16267;DHT22;8241;48.786;9.250;2023-04-27T13:26:23;21.60;68.50
16267;DHT22;8241;48.786;9.250;2023-04-27T13:28:50;21.50;68.70
16267;DHT22;8241;48.786;9.250;2023-04-27T13:31:19;21.40;69.40
16267;DHT22;8241;48.786;9.250;2023-04-27T13:33:47;21.70;69.40
16267;DHT22;8241;48.786;9.250;2023-04-27T13:36:14;21.70;67.30
16267;DHT22;8241;48.786;9.250;2023-04-27T13:38:41;21.70;66.90
16267;DHT22;8241;48.786;9.250;2023-04-27T13:41:08;21.60;69.30
16267;DHT22;8241;48.786;9.250;2023-04-27T13:43:35;21.50;70.20
16267;DHT22;8241;48.786;9.250;2023-04-27T13:46:02;21.60;70.10
16267;DHT22;8241;48.786;9.250;2023-04-27T13:48:29;21.50;69.40
16267;DHT22;8241;48.786;9.250;2023-04-27T13:50:57;21.50;69.20
16267;DHT22;8241;48.786;9.250;2023-04-27T13:53:25;21.50;69.20
16267;DHT22;8241;48.786;9.250;2023-04-27T13:55:53;21.50;69.20
16267;DHT22;8241;48.786;9.250;2023-04-27T13:58:20;21.30;69.10
16267;DHT22;8241;48.786;9.250;2023-04-27T14:00:47;21.40;69.20
16267;DHT22;8241;48.786;9.250;2023-04-27T14:03:17;20.80;68.60
16267;DHT22;8241;48.786;9.250;2023-04-27T14:05:44;20.40;70.10
16267;DHT22;8241;48.786;9.250;2023-04-27T14:08:14;20.10;70.20
16267;DHT22;8241;48.786;9.250;2023-04-27T14:10:41;20.00;71.70
16267;DHT22;8241;48.786;9.250;2023-04-27T14:13:08;20.10;70.90
16267;DHT22;8241;48.786;9.250;2023-04-27T14:15:35;20.30;73.10
16267;DHT22;8241;48.786;9.250;2023-04-27T14:18:03;20.60;70.60
16267;DHT22;8241;48.786;9.250;2023-04-27T14:20:34;20.60;69.50
16267;DHT22;8241;48.786;9.250;2023-04-27T14:23:01;20.40;69.70
16267;DHT22;8241;48.786;9.250;2023-04-27T14:25:30;20.70;72.50
16267;DHT22;8241;48.786;9.250;2023-04-27T14:27:59;20.80;71.20
16267;DHT22;8241;48.786;9.250;2023-04-27T14:30:28;20.70;71.20
16267;DHT22;8241;48.786;9.250;2023-04-27T14:32:56;20.90;70.70
16267;DHT22;8241;48.786;9.250;2023-04-27T14:35:25;21.00;70.00
16267;DHT22;8241;48.786;9.250;2023-04-27T14:37:52;21.00;69.40
16267;DHT22;8241;48.786;9.250;2023-04-27T14:40:21;21.00;69.70
16267;DHT22;8241;48.786;9.250;2023-04-27T14:42:49;21.10;67.50
16267;DHT22;8241;48.786;9.250;2023-04-27T14:45:16;21.00;68.60
16267;DHT22;8241;48.786;9.250;2023-04-27T14:47:43;20.80;68.90
16267;DHT22;8241;48.786;9.250;2023-04-27T14:50:10;20.60;69.10
16267;DHT22;8241;48.786;9.250;2023-04-27T14:52:38;20.30;69.00
16267;DHT22;8241;48.786;9.250;2023-04-27T14:55:06;20.10;71.40
16267;DHT22;8241;48.786;9.250;2023-04-27T14:57:37;20.30;70.40
16267;DHT22;8241;48.786;9.250;2023-04-27T15:03:00;20.40;70.80
16267;DHT22;8241;48.786;9.250;2023-04-27T15:05:28;20.40;71.20
16267;DHT22;8241;48.786;9.250;2023-04-27T15:07:55;20.50;69.80
16267;DHT22;8241;48.786;9.250;2023-04-27T15:10:22;20.60;71.60
16267;DHT22;8241;48.786;9.250;2023-04-27T15:12:50;20.70;71.40
16267;DHT22;8241;48.786;9.250;2023-04-27T15:15:19;20.70;71.00
16267;DHT22;8241;48.786;9.250;2023-04-27T15:17:46;20.80;71.00
16267;DHT22;8241;48.786;9.250;2023-04-27T15:20:16;21.00;71.60
16267;DHT22;8241;48.786;9.250;2023-04-27T15:22:43;21.10;72.10
16267;DHT22;8241;48.786;9.250;2023-04-27T15:25:10;21.20;71.40
16267;DHT22;8241;48.786;9.250;2023-04-27T15:27:37;21.20;70.70
16267;DHT22;8241;48.786;9.250;2023-04-27T15:30:05;21.00;70.30
16267;DHT22;8241;48.786;9.250;2023-04-27T15:32:32;20.90;71.20
16267;DHT22;8241;48.786;9.250;2023-04-27T15:34:59;20.70;70.90
16267;DHT22;8241;48.786;9.250;2023-04-27T15:37:27;20.50;71.00
16267;DHT22;8241;48.786;9.250;2023-04-27T15:39:54;20.30;71.40
16267;DHT22;8241;48.786;9.250;2023-04-27T15:42:21;20.10;71.90
16267;DHT22;8241;48.786;9.250;2023-04-27T15:44:49;20.10;72.30
16267;DHT22;8241;48.786;9.250;2023-04-27T15:47:16;20.00;72.70
16267;DHT22;8241;48.786;9.250;2023-04-27T15:49:43;20.00;73.50
16267;DHT22;8241;48.786;9.250;2023-04-27T15:52:10;19.90;72.60
16267;DHT22;8241;48.786;9.250;2023-04-27T15:54:39;19.80;73.90
16267;DHT22;8241;48.786;9.250;2023-04-27T15:57:06;19.90;74.20
16267;DHT22;8241;48.786;9.250;2023-04-27T15:59:36;19.70;73.00
16267;DHT22;8241;48.786;9.250;2023-04-27T16:02:04;19.60;73.60